sensor_id;sensor_type;location;lat;lon;timestamp;temperature;humidity
14283;DHT22;7225;59.282;18.344;2022-10-16T00:01:43;13.30;99.90
14283;DHT22;7225;59.282;18.344;2022-10-16T00:04:12;13.30;99.90
14283;DHT22;7225;59.282;18.344;2022-10-16T00:06:40;13.30;99.90
14283;DHT22;7225;59.282;18.344;2022-10-16T00:09:08;13.30;99.90
14283;DHT22;7225;59.282;18.344;2022-10-16T00:11:38;13.30;99.90
14283;DHT22;7225;59.282;18.344;2022-10-16T00:14:09;13.20;99.90
14283;DHT22;7225;59.282;18.344;2022-10-16T00:16:38;13.20;99.90
14283;DHT22;7225;59.282;18.344;2022-10-16T00:19:06;13.20;99.90
14283;DHT22;7225;59.282;18.344;2022-10-16T00:21:35;13.20;99.90
14283;DHT22;7225;59.282;18.344;2022-10-16T00:24:06;13.20;99.90
14283;DHT22;7225;59.282;18.344;2022-10-16T00:26:35;13.20;99.90
14283;DHT22;7225;59.282;18.344;2022-10-16T00:29:04;13.20;99.90
14283;DHT22;7225;59.282;18.344;2022-10-16T00:31:32;13.20;99.90
14283;DHT22;7225;59.282;18.344;2022-10-16T00:34:00;13.20;99.90
14283;DHT22;7225;59.282;18.344;2022-10-16T00:36:29;13.20;99.90
14283;DHT22;7225;59.282;18.344;2022-10-16T00:38:58;13.20;99.90
14283;DHT22;7225;59.282;18.344;2022-10-16T00:41:33;13.20;99.90
14283;DHT22;7225;59.282;18.344;2022-10-16T00:44:40;13.20;99.90
14283;DHT22;7225;59.282;18.344;2022-10-16T00:46:52;13.20;99.90
14283;DHT22;7225;59.282;18.344;2022-10-16T00:49:20;13.20;99.90
14283;DHT22;7225;59.282;18.344;2022-10-16T00:51:50;13.10;99.90
14283;DHT22;7225;59.282;18.344;2022-10-16T00:54:30;13.10;99.90
14283;DHT22;7225;59.282;18.344;2022-10-16T00:57:01;13.10;99.90
14283;DHT22;7225;59.282;18.344;2022-10-16T01:02:05;13.20;99.90
14283;DHT22;7225;59.282;18.344;2022-10-16T01:04:52;13.10;99.90
14283;DHT22;7225;59.282;18.344;2022-10-16T01:07:41;13.10;99.90
14283;DHT22;7225;59.282;18.344;2022-10-16T01:10:40;13.10;99.90
14283;DHT22;7225;59.282;18.344;2022-10-16T01:13:12;13.10;99.90
14283;DHT22;7225;59.282;18.344;2022-10-16T01:15:55;13.10;99.90
14283;DHT22;7225;59.282;18.344;2022-10-16T01:18:39;13.00;99.90
14283;DHT22;7225;59.282;18.344;2022-10-16T01:21:24;13.00;99.90
14283;DHT22;7225;59.282;18.344;2022-10-16T01:24:06;13.00;99.90
14283;DHT22;7225;59.282;18.344;2022-10-16T01:29:37;13.00;99.90
14283;DHT22;7225;59.282;18.344;2022-10-16T01:32:24;13.00;99.90
14283;DHT22;7225;59.282;18.344;2022-10-16T01:35:01;13.00;99.90
14283;DHT22;7225;59.282;18.344;2022-10-16T01:37:38;13.00;99.90
14283;DHT22;7225;59.282;18.344;2022-10-16T01:40:11;13.00;99.90
14283;DHT22;7225;59.282;18.344;2022-10-16T01:42:42;13.00;99.90
14283;DHT22;7225;59.282;18.344;2022-10-16T01:45:14;13.00;99.90
14283;DHT22;7225;59.282;18.344;2022-10-16T01:47:43;13.00;99.90
14283;DHT22;7225;59.282;18.344;2022-10-16T01:50:12;13.00;99.90
14283;DHT22;7225;59.282;18.344;2022-10-16T01:55:18;13.00;99.90
14283;DHT22;7225;59.282;18.344;2022-10-16T01:57:49;13.00;99.90
14283;DHT22;7225;59.282;18.344;2022-10-16T02:00:20;13.10;99.90
14283;DHT22;7225;59.282;18.344;2022-10-16T02:02:53;13.00;99.90
14283;DHT22;7225;59.282;18.344;2022-10-16T02:05:40;13.10;99.90
14283;DHT22;7225;59.282;18.344;2022-10-16T02:08:11;13.10;99.90
14283;DHT22;7225;59.282;18.344;2022-10-16T02:10:40;13.10;99.90
14283;DHT22;7225;59.282;18.344;2022-10-16T02:13:22;13.10;99.90
14283;DHT22;7225;59.282;18.344;2022-10-16T02:15:51;13.10;99.90
14283;DHT22;7225;59.282;18.344;2022-10-16T02:18:19;13.10;99.90
14283;DHT22;7225;59.282;18.344;2022-10-16T02:23:47;13.10;99.90
14283;DHT22;7225;59.282;18.344;2022-10-16T02:26:28;13.10;99.90
14283;DHT22;7225;59.282;18.344;2022-10-16T02:29:00;13.20;99.90
14283;DHT22;7225;59.282;18.344;2022-10-16T02:31:35;13.10;99.90
14283;DHT22;7225;59.282;18.344;2022-10-16T02:34:06;13.10;99.90
14283;DHT22;7225;59.282;18.344;2022-10-16T02:36:36;13.10;99.90
14283;DHT22;7225;59.282;18.344;2022-10-16T02:39:06;13.10;99.90
14283;DHT22;7225;59.282;18.344;2022-10-16T02:41:34;13.10;99.90
14283;DHT22;7225;59.282;18.344;2022-10-16T02:44:02;13.10;99.90
14283;DHT22;7225;59.282;18.344;2022-10-16T02:46:30;13.10;99.90
14283;DHT22;7225;59.282;18.344;2022-10-16T02:48:59;13.10;99.90
14283;DHT22;7225;59.282;18.344;2022-10-16T02:51:25;13.10;99.90
14283;DHT22;7225;59.282;18.344;2022-10-16T02:53:53;13.10;99.90
14283;DHT22;7225;59.282;18.344;2022-10-16T02:56:22;13.10;99.90
14283;DHT22;7225;59.282;18.344;2022-10-16T02:58:49;13.10;99.90
14283;DHT22;7225;59.282;18.344;2022-10-16T03:01:15;13.10;99.90
14283;DHT22;7225;59.282;18.344;2022-10-16T03:03:47;13.10;99.90
14283;DHT22;7225;59.282;18.344;2022-10-16T03:06:15;13.00;99.90
14283;DHT22;7225;59.282;18.344;2022-10-16T03:08:46;13.00;99.90
14283;DHT22;7225;59.282;18.344;2022-10-16T03:11:14;13.00;99.90
14283;DHT22;7225;59.282;18.344;2022-10-16T03:13:42;13.00;99.90
14283;DHT22;7225;59.282;18.344;2022-10-16T03:16:10;13.10;99.90
14283;DHT22;7225;59.282;18.344;2022-10-16T03:18:39;13.00;99.90
14283;DHT22;7225;59.282;18.344;2022-10-16T03:21:08;13.00;99.90
14283;DHT22;7225;59.282;18.344;2022-10-16T03:23:37;13.00;99.90
14283;DHT22;7225;59.282;18.344;2022-10-16T03:26:04;13.00;99.90
14283;DHT22;7225;59.282;18.344;2022-10-16T03:28:32;13.00;99.90
14283;DHT22;7225;59.282;18.344;2022-10-16T03:30:59;13.00;99.90
14283;DHT22;7225;59.282;18.344;2022-10-16T03:33:26;13.00;99.90
14283;DHT22;7225;59.282;18.344;2022-10-16T03:35:54;13.00;99.90
14283;DHT22;7225;59.282;18.344;2022-10-16T03:38:22;13.00;99.90
14283;DHT22;7225;59.282;18.344;2022-10-16T03:40:50;13.00;99.90
14283;DHT22;7225;59.282;18.344;2022-10-16T03:43:19;12.90;99.90
14283;DHT22;7225;59.282;18.344;2022-10-16T03:45:47;12.90;99.90
14283;DHT22;7225;59.282;18.344;2022-10-16T03:48:17;12.90;99.90
14283;DHT22;7225;59.282;18.344;2022-10-16T03:50:44;12.90;99.90
14283;DHT22;7225;59.282;18.344;2022-10-16T03:53:14;12.90;99.90
14283;DHT22;7225;59.282;18.344;2022-10-16T03:55:44;12.90;99.90
14283;DHT22;7225;59.282;18.344;2022-10-16T03:58:13;12.90;99.90
14283;DHT22;7225;59.282;18.344;2022-10-16T04:00:44;12.90;99.90
14283;DHT22;7225;59.282;18.344;2022-10-16T04:03:11;12.90;99.90
14283;DHT22;7225;59.282;18.344;2022-10-16T04:05:39;12.90;99.90
14283;DHT22;7225;59.282;18.344;2022-10-16T04:08:08;12.90;99.90
14283;DHT22;7225;59.282;18.344;2022-10-16T04:10:35;12.80;99.90
14283;DHT22;7225;59.282;18.344;2022-10-16T04:13:04;12.80;99.90
14283;DHT22;7225;59.282;18.344;2022-10-16T04:15:34;12.80;99.90
14283;DHT22;7225;59.282;18.344;2022-10-16T04:18:03;12.80;99.90
14283;DHT22;7225;59.282;18.344;2022-10-16T04:20:32;12.80;99.90
14283;DHT22;7225;59.282;18.344;2022-10-16T04:22:59;12.70;99.90
14283;DHT22;7225;59.282;18.344;2022-10-16T04:25:29;12.70;99.90
14283;DHT22;7225;59.282;18.344;2022-10-16T04:27:56;12.70;99.90
14283;DHT22;7225;59.282;18.344;2022-10-16T04:30:23;12.70;99.90
14283;DHT22;7225;59.282;18.344;2022-10-16T04:32:51;12.70;99.90
14283;DHT22;7225;59.282;18.344;2022-10-16T04:35:20;12.70;99.90
14283;DHT22;7225;59.282;18.344;2022-10-16T04:37:48;12.70;99.90
14283;DHT22;7225;59.282;18.344;2022-10-16T04:40:17;12.70;99.90
14283;DHT22;7225;59.282;18.344;2022-10-16T04:42:45;12.60;99.90
14283;DHT22;7225;59.282;18.344;2022-10-16T04:45:14;12.60;99.90
14283;DHT22;7225;59.282;18.344;2022-10-16T04:47:44;12.60;99.90
14283;DHT22;7225;59.282;18.344;2022-10-16T04:50:11;12.60;99.90
14283;DHT22;7225;59.282;18.344;2022-10-16T04:52:40;12.50;99.90
14283;DHT22;7225;59.282;18.344;2022-10-16T04:55:08;12.50;99.90
14283;DHT22;7225;59.282;18.344;2022-10-16T04:57:35;12.50;99.90
14283;DHT22;7225;59.282;18.344;2022-10-16T05:00:03;12.50;99.90
14283;DHT22;7225;59.282;18.344;2022-10-16T05:02:32;12.50;99.90
14283;DHT22;7225;59.282;18.344;2022-10-16T05:04:59;12.50;99.90
14283;DHT22;7225;59.282;18.344;2022-10-16T05:07:26;12.50;99.90
14283;DHT22;7225;59.282;18.344;2022-10-16T05:09:54;12.50;99.90
14283;DHT22;7225;59.282;18.344;2022-10-16T05:12:22;12.50;99.90
14283;DHT22;7225;59.282;18.344;2022-10-16T05:14:50;12.50;99.90
14283;DHT22;7225;59.282;18.344;2022-10-16T05:17:17;12.40;99.90
14283;DHT22;7225;59.282;18.344;2022-10-16T05:19:50;12.50;99.90
14283;DHT22;7225;59.282;18.344;2022-10-16T05:22:20;12.50;99.90
14283;DHT22;7225;59.282;18.344;2022-10-16T05:24:49;12.50;99.90
14283;DHT22;7225;59.282;18.344;2022-10-16T05:27:16;12.50;99.90
14283;DHT22;7225;59.282;18.344;2022-10-16T05:29:47;12.50;99.90
14283;DHT22;7225;59.282;18.344;2022-10-16T05:32:16;12.50;99.90
14283;DHT22;7225;59.282;18.344;2022-10-16T05:34:44;12.50;99.90
14283;DHT22;7225;59.282;18.344;2022-10-16T05:37:12;12.50;99.90
14283;DHT22;7225;59.282;18.344;2022-10-16T05:39:40;12.60;99.90
14283;DHT22;7225;59.282;18.344;2022-10-16T05:42:08;12.60;99.90
14283;DHT22;7225;59.282;18.344;2022-10-16T05:44:35;12.60;99.90
14283;DHT22;7225;59.282;18.344;2022-10-16T05:47:02;12.60;99.90
14283;DHT22;7225;59.282;18.344;2022-10-16T05:49:31;12.60;99.90
14283;DHT22;7225;59.282;18.344;2022-10-16T05:51:58;12.60;99.90
14283;DHT22;7225;59.282;18.344;2022-10-16T05:54:26;12.60;99.90
14283;DHT22;7225;59.282;18.344;2022-10-16T05:56:53;12.70;99.90
14283;DHT22;7225;59.282;18.344;2022-10-16T05:59:22;12.70;99.90
14283;DHT22;7225;59.282;18.344;2022-10-16T06:01:48;12.70;99.90
14283;DHT22;7225;59.282;18.344;2022-10-16T06:04:17;12.70;99.90
14283;DHT22;7225;59.282;18.344;2022-10-16T06:06:44;12.80;99.90
14283;DHT22;7225;59.282;18.344;2022-10-16T06:09:13;12.80;99.90
14283;DHT22;7225;59.282;18.344;2022-10-16T06:11:41;12.80;99.90
14283;DHT22;7225;59.282;18.344;2022-10-16T06:14:11;12.80;99.90
14283;DHT22;7225;59.282;18.344;2022-10-16T06:16:39;12.80;99.90
14283;DHT22;7225;59.282;18.344;2022-10-16T06:19:07;12.80;99.90
14283;DHT22;7225;59.282;18.344;2022-10-16T06:21:37;12.80;99.90
14283;DHT22;7225;59.282;18.344;2022-10-16T06:24:05;12.80;99.90
14283;DHT22;7225;59.282;18.344;2022-10-16T06:26:33;12.90;99.90
14283;DHT22;7225;59.282;18.344;2022-10-16T06:29:02;12.90;99.90
14283;DHT22;7225;59.282;18.344;2022-10-16T06:31:30;12.90;99.90
14283;DHT22;7225;59.282;18.344;2022-10-16T06:34:02;12.90;99.90
14283;DHT22;7225;59.282;18.344;2022-10-16T06:36:32;12.90;99.90
14283;DHT22;7225;59.282;18.344;2022-10-16T06:39:01;12.90;99.90
14283;DHT22;7225;59.282;18.344;2022-10-16T06:41:29;12.90;99.90
14283;DHT22;7225;59.282;18.344;2022-10-16T06:43:58;13.00;99.90
14283;DHT22;7225;59.282;18.344;2022-10-16T06:46:27;13.00;99.90
14283;DHT22;7225;59.282;18.344;2022-10-16T06:48:55;13.00;99.90
14283;DHT22;7225;59.282;18.344;2022-10-16T06:51:24;13.00;99.90
14283;DHT22;7225;59.282;18.344;2022-10-16T06:53:54;13.00;99.90
14283;DHT22;7225;59.282;18.344;2022-10-16T06:56:32;13.00;99.90
14283;DHT22;7225;59.282;18.344;2022-10-16T06:59:01;13.10;99.90
14283;DHT22;7225;59.282;18.344;2022-10-16T07:01:31;13.10;99.90
14283;DHT22;7225;59.282;18.344;2022-10-16T07:04:00;13.10;99.90
14283;DHT22;7225;59.282;18.344;2022-10-16T07:06:32;13.10;99.90
14283;DHT22;7225;59.282;18.344;2022-10-16T07:09:04;13.10;99.90
14283;DHT22;7225;59.282;18.344;2022-10-16T07:11:33;13.10;99.90
14283;DHT22;7225;59.282;18.344;2022-10-16T07:14:02;13.20;99.90
14283;DHT22;7225;59.282;18.344;2022-10-16T07:16:32;13.20;99.90
14283;DHT22;7225;59.282;18.344;2022-10-16T07:19:01;13.20;99.90
14283;DHT22;7225;59.282;18.344;2022-10-16T07:21:32;13.20;99.90
14283;DHT22;7225;59.282;18.344;2022-10-16T07:24:06;13.20;99.90
14283;DHT22;7225;59.282;18.344;2022-10-16T07:26:36;13.20;99.90
14283;DHT22;7225;59.282;18.344;2022-10-16T07:29:12;13.20;99.90
14283;DHT22;7225;59.282;18.344;2022-10-16T07:31:43;13.30;99.90
14283;DHT22;7225;59.282;18.344;2022-10-16T07:34:14;13.30;99.90
14283;DHT22;7225;59.282;18.344;2022-10-16T07:36:42;13.30;99.90
14283;DHT22;7225;59.282;18.344;2022-10-16T07:39:10;13.30;99.90
14283;DHT22;7225;59.282;18.344;2022-10-16T07:41:38;13.30;99.90
14283;DHT22;7225;59.282;18.344;2022-10-16T07:44:06;13.30;99.90
14283;DHT22;7225;59.282;18.344;2022-10-16T07:46:35;13.30;99.90
14283;DHT22;7225;59.282;18.344;2022-10-16T07:49:03;13.30;99.90
14283;DHT22;7225;59.282;18.344;2022-10-16T07:51:31;13.30;99.90
14283;DHT22;7225;59.282;18.344;2022-10-16T07:53:59;13.30;99.90
14283;DHT22;7225;59.282;18.344;2022-10-16T07:56:27;13.30;99.90
14283;DHT22;7225;59.282;18.344;2022-10-16T07:58:54;13.40;99.90
14283;DHT22;7225;59.282;18.344;2022-10-16T08:01:26;13.40;99.90
14283;DHT22;7225;59.282;18.344;2022-10-16T08:03:54;13.40;99.90
14283;DHT22;7225;59.282;18.344;2022-10-16T08:06:22;13.40;99.90
14283;DHT22;7225;59.282;18.344;2022-10-16T08:08:55;13.40;99.90
14283;DHT22;7225;59.282;18.344;2022-10-16T08:11:25;13.40;99.90
14283;DHT22;7225;59.282;18.344;2022-10-16T08:13:53;13.40;99.90
14283;DHT22;7225;59.282;18.344;2022-10-16T08:16:20;13.40;99.90
14283;DHT22;7225;59.282;18.344;2022-10-16T08:18:48;13.40;99.90
14283;DHT22;7225;59.282;18.344;2022-10-16T08:21:22;13.40;99.90
14283;DHT22;7225;59.282;18.344;2022-10-16T08:23:53;13.40;99.90
14283;DHT22;7225;59.282;18.344;2022-10-16T08:26:26;13.40;99.90
14283;DHT22;7225;59.282;18.344;2022-10-16T08:28:54;13.50;99.90
14283;DHT22;7225;59.282;18.344;2022-10-16T08:31:24;13.50;99.90
14283;DHT22;7225;59.282;18.344;2022-10-16T08:33:52;13.50;99.90
14283;DHT22;7225;59.282;18.344;2022-10-16T08:36:20;13.50;99.90
14283;DHT22;7225;59.282;18.344;2022-10-16T08:38:49;13.50;99.90
14283;DHT22;7225;59.282;18.344;2022-10-16T08:49:36;13.60;99.90
14283;DHT22;7225;59.282;18.344;2022-10-16T08:52:11;13.60;99.90
14283;DHT22;7225;59.282;18.344;2022-10-16T08:54:47;13.60;99.90
14283;DHT22;7225;59.282;18.344;2022-10-16T08:57:21;13.50;99.90
14283;DHT22;7225;59.282;18.344;2022-10-16T08:59:52;13.60;99.90
14283;DHT22;7225;59.282;18.344;2022-10-16T09:02:29;13.60;99.90
14283;DHT22;7225;59.282;18.344;2022-10-16T09:10:57;13.50;99.90
14283;DHT22;7225;59.282;18.344;2022-10-16T09:13:40;13.50;99.90
14283;DHT22;7225;59.282;18.344;2022-10-16T09:21:53;13.60;99.90
14283;DHT22;7225;59.282;18.344;2022-10-16T09:24:25;13.70;99.90
14283;DHT22;7225;59.282;18.344;2022-10-16T09:26:56;13.70;99.90
14283;DHT22;7225;59.282;18.344;2022-10-16T09:29:24;13.70;99.90
14283;DHT22;7225;59.282;18.344;2022-10-16T09:31:53;13.70;99.90
14283;DHT22;7225;59.282;18.344;2022-10-16T09:34:30;13.80;99.90
14283;DHT22;7225;59.282;18.344;2022-10-16T09:36:59;13.80;99.90
14283;DHT22;7225;59.282;18.344;2022-10-16T09:39:27;13.80;99.90
14283;DHT22;7225;59.282;18.344;2022-10-16T09:41:55;13.80;99.90
14283;DHT22;7225;59.282;18.344;2022-10-16T09:44:25;13.80;99.90
14283;DHT22;7225;59.282;18.344;2022-10-16T09:47:26;13.80;99.90
14283;DHT22;7225;59.282;18.344;2022-10-16T09:50:02;13.90;99.90
14283;DHT22;7225;59.282;18.344;2022-10-16T09:52:33;13.90;99.90
14283;DHT22;7225;59.282;18.344;2022-10-16T09:55:18;14.00;99.90
14283;DHT22;7225;59.282;18.344;2022-10-16T09:57:53;14.00;99.90
14283;DHT22;7225;59.282;18.344;2022-10-16T10:00:23;14.00;99.90
14283;DHT22;7225;59.282;18.344;2022-10-16T10:02:53;14.10;99.90
14283;DHT22;7225;59.282;18.344;2022-10-16T10:05:29;14.10;99.90
14283;DHT22;7225;59.282;18.344;2022-10-16T10:08:04;14.10;99.90
14283;DHT22;7225;59.282;18.344;2022-10-16T10:10:39;14.10;99.90
14283;DHT22;7225;59.282;18.344;2022-10-16T10:13:22;14.20;99.90
14283;DHT22;7225;59.282;18.344;2022-10-16T10:15:53;14.20;99.90
14283;DHT22;7225;59.282;18.344;2022-10-16T10:18:21;14.20;99.90
14283;DHT22;7225;59.282;18.344;2022-10-16T10:21:00;14.20;99.90
14283;DHT22;7225;59.282;18.344;2022-10-16T10:23:29;14.20;99.90
14283;DHT22;7225;59.282;18.344;2022-10-16T10:29:13;14.30;99.90
14283;DHT22;7225;59.282;18.344;2022-10-16T10:32:03;14.30;99.90
14283;DHT22;7225;59.282;18.344;2022-10-16T10:34:48;14.30;99.90
14283;DHT22;7225;59.282;18.344;2022-10-16T10:40:15;14.30;99.90
14283;DHT22;7225;59.282;18.344;2022-10-16T10:46:05;14.50;99.90
14283;DHT22;7225;59.282;18.344;2022-10-16T10:49:04;14.50;99.90
14283;DHT22;7225;59.282;18.344;2022-10-16T10:55:13;14.60;99.90
14283;DHT22;7225;59.282;18.344;2022-10-16T11:00:34;14.70;99.90
14283;DHT22;7225;59.282;18.344;2022-10-16T11:06:25;14.70;99.90
14283;DHT22;7225;59.282;18.344;2022-10-16T11:09:02;14.60;99.90
14283;DHT22;7225;59.282;18.344;2022-10-16T11:11:40;14.60;99.90
14283;DHT22;7225;59.282;18.344;2022-10-16T11:14:29;14.60;99.90
14283;DHT22;7225;59.282;18.344;2022-10-16T11:17:06;14.60;99.90
14283;DHT22;7225;59.282;18.344;2022-10-16T11:19:45;14.70;99.90
14283;DHT22;7225;59.282;18.344;2022-10-16T11:22:38;14.80;99.90
14283;DHT22;7225;59.282;18.344;2022-10-16T11:25:31;14.90;99.90
14283;DHT22;7225;59.282;18.344;2022-10-16T11:28:19;15.10;99.90
14283;DHT22;7225;59.282;18.344;2022-10-16T11:33:45;15.20;99.90
14283;DHT22;7225;59.282;18.344;2022-10-16T11:46:32;15.00;99.90
14283;DHT22;7225;59.282;18.344;2022-10-16T11:49:25;14.90;99.90
14283;DHT22;7225;59.282;18.344;2022-10-16T11:57:54;14.80;99.90
14283;DHT22;7225;59.282;18.344;2022-10-16T12:00:28;14.70;99.90
14283;DHT22;7225;59.282;18.344;2022-10-16T12:03:15;14.60;99.90
14283;DHT22;7225;59.282;18.344;2022-10-16T12:06:17;14.60;99.90
14283;DHT22;7225;59.282;18.344;2022-10-16T12:08:52;14.60;99.90
14283;DHT22;7225;59.282;18.344;2022-10-16T12:17:01;14.80;99.90
14283;DHT22;7225;59.282;18.344;2022-10-16T12:19:31;15.00;99.90
14283;DHT22;7225;59.282;18.344;2022-10-16T12:22:02;15.00;99.90
14283;DHT22;7225;59.282;18.344;2022-10-16T12:24:37;15.10;99.90
14283;DHT22;7225;59.282;18.344;2022-10-16T12:29:55;15.50;99.90
14283;DHT22;7225;59.282;18.344;2022-10-16T12:32:33;15.60;99.90
14283;DHT22;7225;59.282;18.344;2022-10-16T12:35:27;15.50;99.90
14283;DHT22;7225;59.282;18.344;2022-10-16T12:38:27;15.50;99.90
14283;DHT22;7225;59.282;18.344;2022-10-16T12:41:04;15.40;99.90
14283;DHT22;7225;59.282;18.344;2022-10-16T12:43:40;15.30;99.90
14283;DHT22;7225;59.282;18.344;2022-10-16T12:48:43;15.20;99.90
14283;DHT22;7225;59.282;18.344;2022-10-16T12:51:34;15.30;99.90
14283;DHT22;7225;59.282;18.344;2022-10-16T12:54:10;15.40;99.90
14283;DHT22;7225;59.282;18.344;2022-10-16T13:00:50;15.30;99.90
14283;DHT22;7225;59.282;18.344;2022-10-16T13:03:43;15.20;99.90
14283;DHT22;7225;59.282;18.344;2022-10-16T13:06:20;15.00;99.90
14283;DHT22;7225;59.282;18.344;2022-10-16T13:20:02;15.00;99.90
14283;DHT22;7225;59.282;18.344;2022-10-16T13:23:22;14.90;99.90
14283;DHT22;7225;59.282;18.344;2022-10-16T13:28:47;15.00;99.90
14283;DHT22;7225;59.282;18.344;2022-10-16T13:31:19;15.10;99.90
14283;DHT22;7225;59.282;18.344;2022-10-16T13:33:54;15.20;99.90
14283;DHT22;7225;59.282;18.344;2022-10-16T13:36:26;15.20;99.90
14283;DHT22;7225;59.282;18.344;2022-10-16T13:39:24;15.20;99.90
14283;DHT22;7225;59.282;18.344;2022-10-16T13:44:48;15.30;99.90
14283;DHT22;7225;59.282;18.344;2022-10-16T13:47:23;15.40;99.90
14283;DHT22;7225;59.282;18.344;2022-10-16T13:50:06;15.30;99.90
14283;DHT22;7225;59.282;18.344;2022-10-16T13:52:35;15.30;99.90
14283;DHT22;7225;59.282;18.344;2022-10-16T13:55:03;15.20;99.90
14283;DHT22;7225;59.282;18.344;2022-10-16T13:57:32;15.20;99.90
14283;DHT22;7225;59.282;18.344;2022-10-16T13:59:59;15.10;99.90
14283;DHT22;7225;59.282;18.344;2022-10-16T14:02:31;15.00;99.90
14283;DHT22;7225;59.282;18.344;2022-10-16T14:05:04;14.90;99.90
14283;DHT22;7225;59.282;18.344;2022-10-16T14:07:36;14.90;99.90
14283;DHT22;7225;59.282;18.344;2022-10-16T14:10:06;14.80;99.90
14283;DHT22;7225;59.282;18.344;2022-10-16T14:12:35;14.70;99.90
14283;DHT22;7225;59.282;18.344;2022-10-16T14:15:04;14.60;99.90
14283;DHT22;7225;59.282;18.344;2022-10-16T14:17:34;14.60;99.90
14283;DHT22;7225;59.282;18.344;2022-10-16T14:20:05;14.60;99.90
14283;DHT22;7225;59.282;18.344;2022-10-16T14:22:35;14.50;99.90
14283;DHT22;7225;59.282;18.344;2022-10-16T14:28:03;14.40;99.90
14283;DHT22;7225;59.282;18.344;2022-10-16T14:30:34;14.40;99.90
14283;DHT22;7225;59.282;18.344;2022-10-16T14:33:18;14.40;99.90
14283;DHT22;7225;59.282;18.344;2022-10-16T14:36:03;14.30;99.90
14283;DHT22;7225;59.282;18.344;2022-10-16T14:38:32;14.30;99.90
14283;DHT22;7225;59.282;18.344;2022-10-16T14:41:03;14.20;99.90
14283;DHT22;7225;59.282;18.344;2022-10-16T14:43:40;14.20;99.90
14283;DHT22;7225;59.282;18.344;2022-10-16T14:46:17;14.10;99.90
14283;DHT22;7225;59.282;18.344;2022-10-16T14:48:49;14.10;99.90
14283;DHT22;7225;59.282;18.344;2022-10-16T14:51:19;14.10;99.90
14283;DHT22;7225;59.282;18.344;2022-10-16T14:53:47;14.00;99.90
14283;DHT22;7225;59.282;18.344;2022-10-16T14:56:18;14.00;99.90
14283;DHT22;7225;59.282;18.344;2022-10-16T14:58:47;14.00;99.90
14283;DHT22;7225;59.282;18.344;2022-10-16T15:01:14;14.00;99.90
14283;DHT22;7225;59.282;18.344;2022-10-16T15:03:43;14.00;99.90
14283;DHT22;7225;59.282;18.344;2022-10-16T15:06:13;13.90;99.90
14283;DHT22;7225;59.282;18.344;2022-10-16T15:08:42;13.90;99.90
14283;DHT22;7225;59.282;18.344;2022-10-16T15:11:17;13.90;99.90
14283;DHT22;7225;59.282;18.344;2022-10-16T15:13:46;13.80;99.90
14283;DHT22;7225;59.282;18.344;2022-10-16T15:16:16;13.80;99.90
14283;DHT22;7225;59.282;18.344;2022-10-16T15:18:43;13.80;99.90
14283;DHT22;7225;59.282;18.344;2022-10-16T15:21:24;13.80;99.90
14283;DHT22;7225;59.282;18.344;2022-10-16T15:23:52;13.90;99.90
14283;DHT22;7225;59.282;18.344;2022-10-16T15:26:21;13.80;99.90
14283;DHT22;7225;59.282;18.344;2022-10-16T15:28:49;13.80;99.90
14283;DHT22;7225;59.282;18.344;2022-10-16T15:31:16;13.80;99.90
14283;DHT22;7225;59.282;18.344;2022-10-16T15:33:44;13.80;99.90
14283;DHT22;7225;59.282;18.344;2022-10-16T15:36:25;13.80;99.90
14283;DHT22;7225;59.282;18.344;2022-10-16T15:38:53;13.80;99.90
14283;DHT22;7225;59.282;18.344;2022-10-16T15:41:21;13.80;99.90
14283;DHT22;7225;59.282;18.344;2022-10-16T15:43:49;13.80;99.90
14283;DHT22;7225;59.282;18.344;2022-10-16T15:46:20;13.70;99.90
14283;DHT22;7225;59.282;18.344;2022-10-16T15:48:56;13.70;99.90
14283;DHT22;7225;59.282;18.344;2022-10-16T15:51:25;13.30;99.90
14283;DHT22;7225;59.282;18.344;2022-10-16T15:53:57;12.80;99.90
14283;DHT22;7225;59.282;18.344;2022-10-16T15:56:26;12.60;99.90
14283;DHT22;7225;59.282;18.344;2022-10-16T15:58:55;12.40;99.90
14283;DHT22;7225;59.282;18.344;2022-10-16T16:01:26;12.20;99.90
14283;DHT22;7225;59.282;18.344;2022-10-16T16:03:56;12.20;99.90
14283;DHT22;7225;59.282;18.344;2022-10-16T16:06:25;12.00;99.90
14283;DHT22;7225;59.282;18.344;2022-10-16T16:08:54;11.90;99.90
14283;DHT22;7225;59.282;18.344;2022-10-16T16:11:25;11.80;99.90
14283;DHT22;7225;59.282;18.344;2022-10-16T16:13:54;11.70;99.90
14283;DHT22;7225;59.282;18.344;2022-10-16T16:16:23;11.60;99.90
14283;DHT22;7225;59.282;18.344;2022-10-16T16:18:53;11.50;99.90
14283;DHT22;7225;59.282;18.344;2022-10-16T16:21:21;11.50;99.90
14283;DHT22;7225;59.282;18.344;2022-10-16T16:23:48;11.60;99.90
14283;DHT22;7225;59.282;18.344;2022-10-16T16:26:28;11.50;99.90
14283;DHT22;7225;59.282;18.344;2022-10-16T16:29:01;11.50;99.90
14283;DHT22;7225;59.282;18.344;2022-10-16T16:31:31;11.50;99.90
14283;DHT22;7225;59.282;18.344;2022-10-16T16:33:59;11.50;99.90
14283;DHT22;7225;59.282;18.344;2022-10-16T16:36:27;11.50;99.90
14283;DHT22;7225;59.282;18.344;2022-10-16T16:38:56;11.60;99.90
14283;DHT22;7225;59.282;18.344;2022-10-16T16:41:27;11.60;99.90
14283;DHT22;7225;59.282;18.344;2022-10-16T16:44:00;11.50;99.90
14283;DHT22;7225;59.282;18.344;2022-10-16T16:46:29;11.50;99.90
14283;DHT22;7225;59.282;18.344;2022-10-16T16:48:58;11.50;99.90
14283;DHT22;7225;59.282;18.344;2022-10-16T16:51:26;11.50;99.90
14283;DHT22;7225;59.282;18.344;2022-10-16T16:53:55;11.50;99.90
14283;DHT22;7225;59.282;18.344;2022-10-16T16:56:25;11.50;99.90
14283;DHT22;7225;59.282;18.344;2022-10-16T16:58:55;11.50;99.90
14283;DHT22;7225;59.282;18.344;2022-10-16T17:01:25;11.50;99.90
14283;DHT22;7225;59.282;18.344;2022-10-16T17:03:55;11.40;99.90
14283;DHT22;7225;59.282;18.344;2022-10-16T17:06:26;11.40;99.90
14283;DHT22;7225;59.282;18.344;2022-10-16T17:08:55;11.40;99.90
14283;DHT22;7225;59.282;18.344;2022-10-16T17:11:26;11.40;99.90
14283;DHT22;7225;59.282;18.344;2022-10-16T17:13:56;11.40;99.90
14283;DHT22;7225;59.282;18.344;2022-10-16T17:16:25;11.40;99.90
14283;DHT22;7225;59.282;18.344;2022-10-16T17:18:53;11.30;99.90
14283;DHT22;7225;59.282;18.344;2022-10-16T17:21:20;11.30;99.90
14283;DHT22;7225;59.282;18.344;2022-10-16T17:23:51;11.30;99.90
14283;DHT22;7225;59.282;18.344;2022-10-16T17:26:18;11.30;99.90
14283;DHT22;7225;59.282;18.344;2022-10-16T17:28:45;11.30;99.90
14283;DHT22;7225;59.282;18.344;2022-10-16T17:31:15;11.30;99.90
14283;DHT22;7225;59.282;18.344;2022-10-16T17:33:43;11.30;99.90
14283;DHT22;7225;59.282;18.344;2022-10-16T17:36:12;11.40;99.90
14283;DHT22;7225;59.282;18.344;2022-10-16T17:38:43;11.30;99.90
14283;DHT22;7225;59.282;18.344;2022-10-16T17:41:16;11.30;99.90
14283;DHT22;7225;59.282;18.344;2022-10-16T17:43:46;11.20;99.90